Time,TemperatureF,DewpointF,PressureIn,WindDirection,WindDirectionDegrees,WindSpeedMPH,WindSpeedGustMPH,Humidity,HourlyPrecipIn,Conditions,Clouds,dailyrainin,SolarRadiationWatts/m^2,SoftwareType,DateUTC
2013-08-25 00:00:00,65.3,48.2,29.67,South,169,2.0,5.0,54,0.00,,SKC,0.01,0.00,VWS V14.01,2013-08-25 06:00:00,
2013-08-25 00:03:00,65.4,47.3,29.64,WSW,242,5.0,10.0,52,0.00,,SKC,0.00,0.00,VWS V14.01,2013-08-25 06:03:00,
2013-08-25 00:09:00,66.0,47.4,29.65,WSW,240,11.0,16.0,51,0.00,,SKC,0.00,0.00,VWS V14.01,2013-08-25 06:09:00,
2013-08-25 00:15:00,66.5,47.3,29.63,WSW,237,6.0,16.0,50,0.00,,SKC,0.00,0.00,VWS V14.01,2013-08-25 06:15:00,
2013-08-25 00:21:00,67.0,47.8,29.63,SSW,205,7.0,11.0,50,0.00,,SKC,0.00,0.00,VWS V14.01,2013-08-25 06:21:00,
2013-08-25 00:27:00,67.0,47.8,29.63,South,172,5.0,11.0,50,0.00,,SKC,0.00,0.00,VWS V14.01,2013-08-25 06:27:00,
2013-08-25 00:30:00,64.4,48.4,29.64,SE,134,2.0,6.0,56,0.00,,SKC,0.01,0.00,VWS V14.01,2013-08-25 06:30:00,
2013-08-25 00:33:00,66.9,47.7,29.64,SSW,203,10.0,10.0,50,0.00,,SKC,0.00,0.00,VWS V14.01,2013-08-25 06:33:00,
2013-08-25 00:39:00,66.8,47.6,29.65,WSW,248,10.0,13.0,50,0.00,,SKC,0.00,0.00,VWS V14.01,2013-08-25 06:39:00,
2013-08-25 00:45:00,66.9,47.7,29.65,South,187,5.0,13.0,50,0.00,,SKC,0.00,0.00,VWS V14.01,2013-08-25 06:45:00,
2013-08-25 00:51:00,66.9,48.2,29.65,South,191,4.0,7.0,51,0.00,,SKC,0.00,0.00,VWS V14.01,2013-08-25 06:51:00,
2013-08-25 00:57:00,66.8,48.1,29.65,South,190,5.0,10.0,51,0.00,,SKC,0.00,0.00,VWS V14.01,2013-08-25 06:57:00,
2013-08-25 01:00:00,65.3,47.2,29.64,West,265,7.0,11.0,52,0.00,,SKC,0.01,0.00,VWS V14.01,2013-08-25 07:00:00,
2013-08-25 01:03:00,66.6,48.4,29.65,South,191,2.0,4.0,52,0.00,,SKC,0.00,0.00,VWS V14.01,2013-08-25 07:03:00,
2013-08-25 01:09:00,66.4,48.3,29.66,South,188,0.0,5.0,52,0.00,,SKC,0.00,0.00,VWS V14.01,2013-08-25 07:09:00,
2013-08-25 01:15:00,66.2,48.6,29.66,South,188,0.0,5.0,53,0.00,,SKC,0.00,0.00,VWS V14.01,2013-08-25 07:15:00,
2013-08-25 01:21:00,66.0,48.9,29.66,South,188,0.0,0.0,54,0.00,,SKC,0.00,0.00,VWS V14.01,2013-08-25 07:21:00,
2013-08-25 01:27:00,65.8,48.7,29.66,South,188,0.0,0.0,54,0.00,,SKC,0.00,0.00,VWS V14.01,2013-08-25 07:27:00,
2013-08-25 01:30:00,66.9,47.7,29.64,South,186,6.0,11.0,50,0.00,,SKC,0.00,0.00,VWS V14.01,2013-08-25 07:30:00,
2013-08-25 01:33:00,65.6,48.5,29.66,South,188,0.0,0.0,54,0.00,,SKC,0.00,0.00,VWS V14.01,2013-08-25 07:33:00,
2013-08-25 01:39:00,65.3,48.7,29.66,South,188,0.0,1.0,55,0.00,,SKC,0.00,0.00,VWS V14.01,2013-08-25 07:39:00,
2013-08-25 01:45:00,64.9,48.4,29.66,South,188,0.0,1.0,55,0.00,,SKC,0.00,0.00,VWS V14.01,2013-08-25 07:45:00,
2013-08-25 01:51:00,64.5,49.0,29.66,South,188,0.0,0.0,57,0.00,,SKC,0.00,0.00,VWS V14.01,2013-08-25 07:51:00,
2013-08-25 01:57:00,63.9,48.4,29.67,South,188,0.0,1.0,57,0.00,,SKC,0.00,0.00,VWS V14.01,2013-08-25 07:57:00,
2013-08-25 02:00:00,66.6,48.4,29.65,SSW,192,4.0,10.0,52,0.00,,SKC,0.00,0.00,VWS V14.01,2013-08-25 08:00:00,
2013-08-25 02:03:00,63.3,48.3,29.63,South,188,2.0,2.0,58,0.00,,SKC,0.00,0.00,VWS V14.01,2013-08-25 08:03:00,
2013-08-25 02:09:00,62.5,47.5,29.63,South,188,0.0,2.0,58,0.00,,SKC,0.00,0.00,VWS V14.01,2013-08-25 08:09:00,
2013-08-25 02:15:00,61.8,47.8,29.64,South,188,0.0,2.0,60,0.00,,SKC,0.00,0.00,VWS V14.01,2013-08-25 08:15:00,
2013-08-25 02:21:00,61.4,47.8,29.64,South,188,0.0,0.0,61,0.00,,SKC,0.00,0.00,VWS V14.01,2013-08-25 08:21:00,
2013-08-25 02:27:00,60.9,48.7,29.64,South,188,0.0,0.0,64,0.00,,SKC,0.00,0.00,VWS V14.01,2013-08-25 08:27:00,
2013-08-25 02:30:00,65.6,48.5,29.66,South,188,0.0,0.0,54,0.00,,SKC,0.00,0.00,VWS V14.01,2013-08-25 08:30:00,
2013-08-25 02:33:00,60.4,48.2,29.64,South,188,0.0,0.0,64,0.00,,SKC,0.00,0.00,VWS V14.01,2013-08-25 08:33:00,
2013-08-25 02:39:00,59.9,47.7,29.65,South,188,0.0,0.0,64,0.00,,SKC,0.00,0.00,VWS V14.01,2013-08-25 08:39:00,
2013-08-25 02:45:00,59.2,47.5,29.66,South,188,0.0,0.0,65,0.00,,SKC,0.00,0.00,VWS V14.01,2013-08-25 08:45:00,
2013-08-25 02:51:00,59.0,47.7,29.66,South,188,1.0,1.0,66,0.00,,SKC,0.00,0.00,VWS V14.01,2013-08-25 08:51:00,
2013-08-25 02:57:00,58.5,48.0,29.65,South,188,0.0,4.0,68,0.00,,SKC,0.00,0.00,VWS V14.01,2013-08-25 08:57:00,
2013-08-25 03:00:00,63.6,48.6,29.68,South,188,2.0,2.0,58,0.00,,SKC,0.00,0.00,VWS V14.01,2013-08-25 09:00:00,
2013-08-25 03:03:00,58.2,47.7,29.67,South,188,0.0,1.0,68,0.00,,SKC,0.00,0.00,VWS V14.01,2013-08-25 09:03:00,
2013-08-25 03:09:00,58.1,48.0,29.67,South,188,0.0,1.0,69,0.00,,SKC,0.00,0.00,VWS V14.01,2013-08-25 09:09:00,
2013-08-25 03:15:00,58.1,48.4,29.67,South,188,0.0,1.0,70,0.00,,SKC,0.00,0.00,VWS V14.01,2013-08-25 09:15:00,
2013-08-25 03:21:00,58.1,48.4,29.67,South,188,0.0,4.0,70,0.00,,SKC,0.00,0.00,VWS V14.01,2013-08-25 09:21:00,
2013-08-25 03:27:00,58.2,48.5,29.68,South,188,1.0,4.0,70,0.00,,SKC,0.00,0.00,VWS V14.01,2013-08-25 09:27:00,
2013-08-25 03:30:00,60.5,48.3,29.64,South,188,0.0,0.0,64,0.00,,SKC,0.00,0.00,VWS V14.01,2013-08-25 09:30:00,
2013-08-25 03:33:00,58.4,49.0,29.67,South,188,2.0,5.0,71,0.00,,SKC,0.00,0.00,VWS V14.01,2013-08-25 09:33:00,
2013-08-25 03:39:00,58.7,49.0,29.67,South,188,5.0,8.0,70,0.00,,SKC,0.00,0.00,VWS V14.01,2013-08-25 09:39:00,
2013-08-25 03:45:00,59.0,48.9,29.67,South,188,0.0,8.0,69,0.00,,SKC,0.00,0.00,VWS V14.01,2013-08-25 09:45:00,
2013-08-25 03:51:00,59.0,48.9,29.67,South,188,0.0,2.0,69,0.00,,SKC,0.00,0.00,VWS V14.01,2013-08-25 09:51:00,
2013-08-25 03:57:00,59.0,48.9,29.68,South,188,0.0,2.0,69,0.00,,SKC,0.00,0.00,VWS V14.01,2013-08-25 09:57:00,
2013-08-25 04:00:00,58.3,47.8,29.67,South,188,1.0,4.0,68,0.00,,SKC,0.00,0.00,VWS V14.01,2013-08-25 10:00:00,
2013-08-25 04:03:00,59.2,49.0,29.68,South,188,0.0,0.0,69,0.00,,SKC,0.00,0.00,VWS V14.01,2013-08-25 10:03:00,
2013-08-25 04:09:00,59.3,49.1,29.68,South,188,0.0,0.0,69,0.00,,SKC,0.00,0.00,VWS V14.01,2013-08-25 10:09:00,
2013-08-25 04:15:00,59.2,49.0,29.68,South,188,0.0,0.0,69,0.00,,SKC,0.00,0.00,VWS V14.01,2013-08-25 10:15:00,
2013-08-25 04:21:00,59.1,49.0,29.68,South,188,0.0,0.0,69,0.00,,SKC,0.00,0.00,VWS V14.01,2013-08-25 10:21:00,
2013-08-25 04:28:00,59.0,48.9,29.68,South,188,0.0,0.0,69,0.00,,SKC,0.00,0.00,VWS V14.01,2013-08-25 10:28:00,
2013-08-25 04:30:00,58.3,49.0,29.67,South,188,2.0,4.0,71,0.00,,SKC,0.00,0.00,VWS V14.01,2013-08-25 10:30:00,
2013-08-25 04:34:00,59.0,48.9,29.68,South,188,0.0,0.0,69,0.00,,SKC,0.00,0.00,VWS V14.01,2013-08-25 10:34:00,
2013-08-25 04:40:00,59.0,48.9,29.68,ENE,65,3.0,3.0,69,0.00,,SKC,0.00,0.00,VWS V14.01,2013-08-25 10:40:00,
2013-08-25 04:45:00,59.0,48.9,29.67,South,188,0.0,8.0,69,0.00,,SKC,0.00,0.00,VWS V14.01,2013-08-25 10:45:00,
2013-08-25 04:46:00,59.0,49.2,29.69,ENE,65,0.0,3.0,70,0.00,,SKC,0.00,0.00,VWS V14.01,2013-08-25 10:46:00,
2013-08-25 04:52:00,59.0,49.2,29.69,ENE,65,0.0,2.0,70,0.00,,SKC,0.00,0.00,VWS V14.01,2013-08-25 10:52:00,
2013-08-25 04:58:00,59.0,49.2,29.69,ENE,65,0.0,3.0,70,0.00,,SKC,0.00,0.00,VWS V14.01,2013-08-25 10:58:00,
2013-08-25 05:00:00,59.1,49.0,29.68,South,188,0.0,2.0,69,0.00,,SKC,0.00,0.00,VWS V14.01,2013-08-25 11:00:00,
2013-08-25 05:04:00,58.9,49.2,29.71,ENE,60,0.0,3.0,70,0.00,,SKC,0.00,0.00,VWS V14.01,2013-08-25 11:04:00,
2013-08-25 05:10:00,58.8,49.0,29.71,ENE,60,0.0,3.0,70,0.00,,SKC,0.00,0.00,VWS V14.01,2013-08-25 11:10:00,
2013-08-25 05:15:00,59.3,49.1,29.68,South,188,0.0,0.0,69,0.00,,SKC,0.00,0.00,VWS V14.01,2013-08-25 11:15:00,
2013-08-25 05:16:00,58.7,49.0,29.71,ENE,60,0.0,3.0,70,0.00,,SKC,0.00,0.00,VWS V14.01,2013-08-25 11:16:00,
2013-08-25 05:22:00,58.6,48.9,29.71,ENE,60,0.0,0.0,70,0.00,,SKC,0.00,0.00,VWS V14.01,2013-08-25 11:22:00,
2013-08-25 05:28:00,58.5,48.8,29.71,ENE,59,1.0,2.0,70,0.00,,SKC,0.00,0.00,VWS V14.01,2013-08-25 11:28:00,
2013-08-25 05:30:00,59.0,48.9,29.68,South,188,0.0,0.0,69,0.00,,SKC,0.00,0.00,VWS V14.01,2013-08-25 11:30:00,
2013-08-25 05:34:00,58.4,48.7,29.72,NE,51,0.0,1.0,70,0.00,,SKC,0.00,0.00,VWS V14.01,2013-08-25 11:34:00,
2013-08-25 05:40:00,58.4,48.7,29.73,NE,51,0.0,1.0,70,0.00,,SKC,0.00,0.00,VWS V14.01,2013-08-25 11:40:00,
2013-08-25 05:45:00,59.0,49.2,29.69,ENE,65,0.0,3.0,70,0.00,,SKC,0.00,0.00,VWS V14.01,2013-08-25 11:45:00,
2013-08-25 05:46:00,58.3,48.6,29.73,NE,51,0.0,1.0,70,0.00,,SKC,0.00,0.00,VWS V14.01,2013-08-25 11:46:00,
2013-08-25 05:52:00,58.1,48.4,29.73,NE,51,0.0,1.0,70,0.00,,SKC,0.00,0.00,VWS V14.01,2013-08-25 11:52:00,
2013-08-25 05:58:00,58.0,48.7,29.73,NE,51,0.0,1.0,71,0.00,,SKC,0.00,0.00,VWS V14.01,2013-08-25 11:58:00,
2013-08-25 06:00:00,58.9,49.2,29.69,ENE,65,0.0,3.0,70,0.00,,SKC,0.00,0.00,VWS V14.01,2013-08-25 12:00:00,
2013-08-25 06:04:00,57.9,48.2,29.75,NE,51,0.0,0.0,70,0.00,,SKC,0.00,0.00,VWS V14.01,2013-08-25 12:04:00,
2013-08-25 06:10:00,57.7,48.4,29.75,NE,51,0.0,0.0,71,0.00,,SKC,0.00,0.00,VWS V14.01,2013-08-25 12:10:00,
2013-08-25 06:15:00,58.7,49.0,29.71,ENE,60,0.0,3.0,70,0.00,,SKC,0.00,0.00,VWS V14.01,2013-08-25 12:15:00,
2013-08-25 06:16:00,57.6,48.7,29.75,NE,51,0.0,0.0,72,0.00,,SKC,0.00,0.00,VWS V14.01,2013-08-25 12:16:00,
2013-08-25 06:21:00,57.5,48.2,29.75,NE,51,0.0,0.0,71,0.00,,SKC,0.00,0.00,VWS V14.01,2013-08-25 12:21:00,
2013-08-25 06:27:00,57.2,48.6,29.75,NE,51,0.0,0.0,73,0.00,,SKC,0.00,0.00,VWS V14.01,2013-08-25 12:27:00,
2013-08-25 06:30:00,58.5,48.4,29.72,NE,51,0.0,2.0,69,0.00,,SKC,0.00,0.00,VWS V14.01,2013-08-25 12:30:00,
2013-08-25 06:33:00,57.0,48.4,29.75,NE,51,0.0,0.0,73,0.00,,SKC,0.00,0.00,VWS V14.01,2013-08-25 12:33:00,
2013-08-25 06:39:00,56.9,48.3,29.75,NE,51,0.0,0.0,73,0.00,,SKC,0.00,5.00,VWS V14.01,2013-08-25 12:39:00,
2013-08-25 06:45:00,56.8,48.2,29.75,NE,51,0.0,1.0,73,0.00,,SKC,0.00,7.00,VWS V14.01,2013-08-25 12:45:00,
2013-08-25 06:51:00,56.7,48.9,29.75,NE,51,0.0,1.0,75,0.00,,SKC,0.00,12.00,VWS V14.01,2013-08-25 12:51:00,
2013-08-25 06:57:00,56.4,48.6,29.75,NE,51,0.0,1.0,75,0.00,,SKC,0.00,19.00,VWS V14.01,2013-08-25 12:57:00,
2013-08-25 07:00:00,57.9,48.2,29.74,NE,51,0.0,1.0,70,0.00,,SKC,0.00,0.00,VWS V14.01,2013-08-25 13:00:00,
2013-08-25 07:03:00,56.3,48.5,29.78,NE,51,0.0,0.0,75,0.00,,SKC,0.00,21.00,VWS V14.01,2013-08-25 13:03:00,
2013-08-25 07:09:00,56.2,48.8,29.78,NE,51,0.0,0.0,76,0.00,,SKC,0.00,23.00,VWS V14.01,2013-08-25 13:09:00,
2013-08-25 07:15:00,56.1,48.7,29.78,NE,51,0.0,0.0,76,0.00,,SKC,0.00,25.00,VWS V14.01,2013-08-25 13:15:00,
2013-08-25 07:21:00,55.9,48.5,29.79,NE,51,0.0,0.0,76,0.00,,SKC,0.00,25.00,VWS V14.01,2013-08-25 13:21:00,
2013-08-25 07:27:00,55.8,48.7,29.78,NE,51,0.0,0.0,77,0.00,,SKC,0.00,30.00,VWS V14.01,2013-08-25 13:27:00,
2013-08-25 07:30:00,57.1,48.5,29.75,NE,51,0.0,1.0,73,0.00,,SKC,0.00,0.00,VWS V14.01,2013-08-25 13:30:00,
2013-08-25 07:33:00,55.6,48.5,29.78,NE,51,0.0,1.0,77,0.00,,SKC,0.00,46.00,VWS V14.01,2013-08-25 13:33:00,
2013-08-25 07:39:00,55.3,48.6,29.78,NE,51,0.0,1.0,78,0.00,,SKC,0.00,65.00,VWS V14.01,2013-08-25 13:39:00,
2013-08-25 07:45:00,55.3,48.9,29.78,NE,51,0.0,1.0,79,0.00,,SKC,0.00,84.00,VWS V14.01,2013-08-25 13:45:00,
2013-08-25 07:51:00,55.3,49.6,29.78,NE,51,0.0,0.0,81,0.00,,SKC,0.00,102.00,VWS V14.01,2013-08-25 13:51:00,
2013-08-25 07:57:00,55.3,49.6,29.78,NE,51,0.0,0.0,81,0.00,,SKC,0.00,116.00,VWS V14.01,2013-08-25 13:57:00,
2013-08-25 08:00:00,56.4,48.6,29.78,NE,51,0.0,1.0,75,0.00,,SKC,0.00,21.00,VWS V14.01,2013-08-25 14:00:00,
2013-08-25 08:03:00,55.5,50.1,29.79,NE,51,0.0,0.0,82,0.00,,SKC,0.00,134.00,VWS V14.01,2013-08-25 14:03:00,
2013-08-25 08:09:00,55.8,50.4,29.80,NE,51,0.0,1.0,82,0.00,,SKC,0.00,149.00,VWS V14.01,2013-08-25 14:09:00,
2013-08-25 08:15:00,56.1,50.7,29.80,NE,51,0.0,1.0,82,0.00,,SKC,0.00,146.00,VWS V14.01,2013-08-25 14:15:00,
2013-08-25 08:21:00,56.6,51.2,29.78,NE,51,0.0,0.0,82,0.00,,SKC,0.00,181.00,VWS V14.01,2013-08-25 14:21:00,
2013-08-25 08:27:00,57.2,51.1,29.78,SE,142,2.0,5.0,80,0.00,,SKC,0.00,213.00,VWS V14.01,2013-08-25 14:27:00,
2013-08-25 08:30:00,55.7,48.6,29.78,NE,51,0.0,0.0,77,0.00,,SKC,0.00,39.00,VWS V14.01,2013-08-25 14:30:00,
2013-08-25 08:33:00,58.1,50.9,29.78,SSE,155,4.0,4.0,77,0.00,,SKC,0.00,163.00,VWS V14.01,2013-08-25 14:33:00,
2013-08-25 08:39:00,59.0,51.1,29.77,SSE,156,0.0,4.0,75,0.00,,SKC,0.00,144.00,VWS V14.01,2013-08-25 14:39:00,
2013-08-25 08:45:00,59.3,51.0,29.77,SSE,156,0.0,4.0,74,0.00,,SKC,0.00,158.00,VWS V14.01,2013-08-25 14:45:00,
2013-08-25 08:51:00,59.8,51.5,29.77,SSE,156,0.0,0.0,74,0.00,,SKC,0.00,190.00,VWS V14.01,2013-08-25 14:51:00,
2013-08-25 08:57:00,60.3,51.6,29.77,SSE,156,0.0,0.0,73,0.00,,SKC,0.00,214.00,VWS V14.01,2013-08-25 14:57:00,
2013-08-25 09:00:00,55.4,50.0,29.78,NE,51,0.0,0.0,82,0.00,,SKC,0.00,127.00,VWS V14.01,2013-08-25 15:00:00,
2013-08-25 09:03:00,60.9,51.5,29.77,SSE,156,2.0,2.0,71,0.00,,SKC,0.00,338.00,VWS V14.01,2013-08-25 15:03:00,
2013-08-25 09:09:00,61.7,52.2,29.77,SSE,156,0.0,2.0,71,0.00,,SKC,0.00,211.00,VWS V14.01,2013-08-25 15:09:00,
2013-08-25 09:15:00,62.5,51.4,29.77,SSE,156,0.0,4.0,67,0.00,,SKC,0.00,410.00,VWS V14.01,2013-08-25 15:15:00,
2013-08-25 09:21:00,63.3,51.3,29.76,SSE,156,0.0,3.0,65,0.00,,SKC,0.00,552.00,VWS V14.01,2013-08-25 15:21:00,
2013-08-25 09:27:00,64.7,52.3,29.74,SSE,156,0.0,3.0,64,0.00,,SKC,0.00,703.00,VWS V14.01,2013-08-25 15:27:00,
2013-08-25 09:30:00,57.8,51.3,29.78,SE,146,3.0,5.0,79,0.00,,SKC,0.00,185.00,VWS V14.01,2013-08-25 15:30:00,
2013-08-25 09:33:00,66.5,53.1,29.74,SSE,156,0.0,2.0,62,0.00,,SKC,0.00,670.00,VWS V14.01,2013-08-25 15:33:00,
2013-08-25 09:39:00,68.0,52.2,29.73,SSE,156,0.0,3.0,57,0.00,,SKC,0.00,708.00,VWS V14.01,2013-08-25 15:39:00,
2013-08-25 09:45:00,69.2,53.3,29.71,SSE,156,3.0,3.0,57,0.00,,SKC,0.00,515.00,VWS V14.01,2013-08-25 15:45:00,
2013-08-25 09:51:00,69.7,52.8,29.71,NE,44,1.0,5.0,55,0.00,,SKC,0.00,601.00,VWS V14.01,2013-08-25 15:51:00,
2013-08-25 09:58:00,70.3,52.9,29.71,NE,44,1.0,5.0,54,0.00,,SKC,0.00,612.00,VWS V14.01,2013-08-25 15:58:00,
2013-08-25 10:00:00,60.7,52.0,29.76,SSE,156,0.0,0.0,73,0.00,,SKC,0.00,290.00,VWS V14.01,2013-08-25 16:00:00,
2013-08-25 10:04:00,70.9,53.4,29.71,NE,46,5.0,5.0,54,0.00,,SKC,0.00,800.00,VWS V14.01,2013-08-25 16:04:00,
2013-08-25 10:10:00,72.0,53.4,29.71,NNE,21,3.0,5.0,52,0.00,,SKC,0.00,619.00,VWS V14.01,2013-08-25 16:10:00,
2013-08-25 10:15:00,62.7,51.6,29.75,SSE,156,1.0,4.0,67,0.00,,SKC,0.00,436.00,VWS V14.01,2013-08-25 16:15:00,
2013-08-25 10:16:00,72.7,53.5,29.69,NNE,15,1.0,7.0,51,0.00,,SKC,0.00,909.00,VWS V14.01,2013-08-25 16:16:00,
2013-08-25 10:22:00,73.3,53.6,29.70,NE,42,4.0,7.0,50,0.00,,SKC,0.00,401.00,VWS V14.01,2013-08-25 16:22:00,
2013-08-25 10:28:00,72.9,53.7,29.70,ENE,65,0.0,7.0,51,0.00,,SKC,0.00,466.00,VWS V14.01,2013-08-25 16:28:00,
2013-08-25 10:30:00,65.9,52.5,29.74,SSE,156,0.0,3.0,62,0.00,,SKC,0.00,722.00,VWS V14.01,2013-08-25 16:30:00,
2013-08-25 10:34:00,72.4,53.3,29.70,NE,47,0.0,6.0,51,0.00,,SKC,0.00,793.00,VWS V14.01,2013-08-25 16:34:00,
2013-08-25 10:40:00,71.9,52.8,29.70,NE,46,0.0,6.0,51,0.00,,SKC,0.00,292.00,VWS V14.01,2013-08-25 16:40:00,
2013-08-25 10:45:00,69.4,53.0,29.71,SSE,149,0.0,3.0,56,0.00,,SKC,0.00,441.00,VWS V14.01,2013-08-25 16:45:00,
2013-08-25 10:46:00,71.2,53.2,29.70,NNE,32,0.0,7.0,53,0.00,,SKC,0.00,304.00,VWS V14.01,2013-08-25 16:46:00,
2013-08-25 10:52:00,70.7,52.2,29.70,NNE,30,0.0,5.0,52,0.00,,SKC,0.00,265.00,VWS V14.01,2013-08-25 16:52:00,
2013-08-25 10:58:00,70.5,53.1,29.70,NE,50,0.0,5.0,54,0.00,,SKC,0.00,401.00,VWS V14.01,2013-08-25 16:58:00,
2013-08-25 11:00:00,70.6,53.2,29.70,NNE,33,4.0,5.0,54,0.00,,SKC,0.00,652.00,VWS V14.01,2013-08-25 17:00:00,
2013-08-25 11:04:00,70.6,53.2,29.70,NE,44,5.0,5.0,54,0.00,,SKC,0.00,429.00,VWS V14.01,2013-08-25 17:04:00,
2013-08-25 11:10:00,70.5,53.1,29.69,NE,41,3.0,7.0,54,0.00,,SKC,0.00,506.00,VWS V14.01,2013-08-25 17:10:00,
2013-08-25 11:15:00,72.8,54.2,29.69,NNE,22,2.0,7.0,52,0.00,,SKC,0.00,812.00,VWS V14.01,2013-08-25 17:15:00,
2013-08-25 11:16:00,71.1,53.6,29.69,NNE,29,0.0,7.0,54,0.00,,SKC,0.00,638.00,VWS V14.01,2013-08-25 17:16:00,
2013-08-25 11:22:00,72.0,53.4,29.69,NE,45,2.0,5.0,52,0.00,,SKC,0.00,487.00,VWS V14.01,2013-08-25 17:22:00,
2013-08-25 11:28:00,72.4,53.3,29.69,NE,44,3.0,5.0,51,0.00,,SKC,0.00,417.00,VWS V14.01,2013-08-25 17:28:00,
2013-08-25 11:30:00,72.6,53.5,29.69,NE,37,0.0,7.0,51,0.00,,SKC,0.00,431.00,VWS V14.01,2013-08-25 17:30:00,
2013-08-25 11:34:00,72.7,53.0,29.67,NE,44,0.0,0.0,50,0.00,,SKC,0.00,380.00,VWS V14.01,2013-08-25 17:34:00,
2013-08-25 11:40:00,73.1,53.4,29.67,NE,44,3.0,3.0,50,0.00,,SKC,0.00,348.00,VWS V14.01,2013-08-25 17:40:00,
2013-08-25 11:45:00,71.1,53.1,29.70,NNE,30,0.0,7.0,53,0.00,,SKC,0.00,292.00,VWS V14.01,2013-08-25 17:45:00,
2013-08-25 11:46:00,73.3,54.6,29.67,NE,44,0.0,3.0,52,0.00,,SKC,0.00,339.00,VWS V14.01,2013-08-25 17:46:00,
2013-08-25 11:52:00,73.5,54.8,29.67,NE,44,3.0,3.0,52,0.00,,SKC,0.00,371.00,VWS V14.01,2013-08-25 17:52:00,
2013-08-25 11:58:00,73.6,54.9,29.67,NE,44,2.0,3.0,52,0.00,,SKC,0.00,413.00,VWS V14.01,2013-08-25 17:58:00,
2013-08-25 12:00:00,70.6,53.2,29.70,NE,48,0.0,5.0,54,0.00,,SKC,0.00,441.00,VWS V14.01,2013-08-25 18:00:00,
2013-08-25 12:04:00,74.1,54.8,29.65,NE,44,3.0,3.0,51,0.00,,SKC,0.00,397.00,VWS V14.01,2013-08-25 18:04:00,
2013-08-25 12:10:00,74.4,54.0,29.65,NE,44,0.0,3.0,49,0.00,,SKC,0.00,406.00,VWS V14.01,2013-08-25 18:10:00,
2013-08-25 12:15:00,71.2,53.2,29.69,NNE,22,3.0,7.0,53,0.00,,SKC,0.00,638.00,VWS V14.01,2013-08-25 18:15:00,
2013-08-25 12:16:00,75.1,54.1,29.63,NE,44,0.0,3.0,48,0.00,,SKC,0.00,436.00,VWS V14.01,2013-08-25 18:16:00,
2013-08-25 12:22:00,75.9,54.2,29.63,NE,44,3.0,3.0,47,0.00,,SKC,0.00,346.00,VWS V14.01,2013-08-25 18:22:00,
2013-08-25 12:28:00,76.2,53.9,29.63,NE,44,0.0,3.0,46,0.00,,SKC,0.00,355.00,VWS V14.01,2013-08-25 18:28:00,
2013-08-25 12:30:00,72.5,53.9,29.67,NE,44,0.0,5.0,52,0.00,,SKC,0.00,485.00,VWS V14.01,2013-08-25 18:30:00,
2013-08-25 12:34:00,76.4,52.9,29.63,North,360,0.0,4.0,44,0.00,,SKC,0.00,287.00,VWS V14.01,2013-08-25 18:34:00,
2013-08-25 12:40:00,76.4,52.9,29.63,North,355,1.0,4.0,44,0.00,,SKC,0.00,267.00,VWS V14.01,2013-08-25 18:40:00,
2013-08-25 12:45:00,73.3,54.6,29.67,NE,44,0.0,3.0,52,0.00,,SKC,0.00,341.00,VWS V14.01,2013-08-25 18:45:00,
2013-08-25 12:46:00,76.5,53.0,29.61,North,355,0.0,4.0,44,0.00,,SKC,0.00,229.00,VWS V14.01,2013-08-25 18:46:00,
2013-08-25 12:52:00,76.6,53.1,29.61,North,355,0.0,0.0,44,0.00,,SKC,0.00,355.00,VWS V14.01,2013-08-25 18:52:00,
2013-08-25 12:58:00,76.7,54.4,29.62,North,355,0.0,0.0,46,0.00,,SKC,0.00,264.00,VWS V14.01,2013-08-25 18:58:00,
2013-08-25 13:00:00,73.9,54.1,29.67,NE,44,3.0,4.0,50,0.00,,SKC,0.00,619.00,VWS V14.01,2013-08-25 19:00:00,
2013-08-25 13:04:00,76.7,53.2,29.64,ESE,103,0.0,0.0,44,0.00,,SKC,0.00,267.00,VWS V14.01,2013-08-25 19:04:00,
2013-08-25 13:10:00,76.6,53.1,29.64,SSW,206,5.0,6.0,44,0.00,,SKC,0.00,346.00,VWS V14.01,2013-08-25 19:10:00,
2013-08-25 13:15:00,75.2,54.2,29.63,NE,44,0.0,3.0,48,0.00,,SKC,0.00,436.00,VWS V14.01,2013-08-25 19:15:00,
2013-08-25 13:16:00,76.4,51.6,29.64,SSW,198,2.0,12.0,42,0.00,,SKC,0.00,350.00,VWS V14.01,2013-08-25 19:16:00,
2013-08-25 13:22:00,76.2,52.7,29.63,SSE,160,1.0,7.0,44,0.00,,SKC,0.00,318.00,VWS V14.01,2013-08-25 19:22:00,
2013-08-25 13:28:00,75.9,52.5,29.63,SSE,148,1.0,7.0,44,0.00,,SKC,0.00,281.00,VWS V14.01,2013-08-25 19:28:00,
2013-08-25 13:30:00,76.3,53.4,29.63,North,5,4.0,5.0,45,0.00,,SKC,0.00,330.00,VWS V14.01,2013-08-25 19:30:00,
2013-08-25 13:34:00,75.6,52.8,29.63,SSE,150,3.0,6.0,45,0.00,,SKC,0.00,260.00,VWS V14.01,2013-08-25 19:34:00,
2013-08-25 13:40:00,75.1,52.9,29.65,South,169,5.0,9.0,46,0.00,,SKC,0.00,214.00,VWS V14.01,2013-08-25 19:40:00,
2013-08-25 13:45:00,76.5,53.0,29.61,North,355,0.0,4.0,44,0.00,,SKC,0.00,229.00,VWS V14.01,2013-08-25 19:45:00,
2013-08-25 13:46:00,74.7,53.7,29.66,South,190,4.0,10.0,48,0.00,,SKC,0.00,169.00,VWS V14.01,2013-08-25 19:46:00,
2013-08-25 13:52:00,74.1,53.7,29.66,SSW,203,7.0,7.0,49,0.00,,SKC,0.00,151.00,VWS V14.01,2013-08-25 19:52:00,
2013-08-25 13:58:00,73.1,55.0,29.68,SSW,192,5.0,14.0,53,0.00,,SKC,0.00,128.00,VWS V14.01,2013-08-25 19:58:00,
2013-08-25 14:00:00,76.7,53.2,29.64,ESE,103,0.0,4.0,44,0.00,,SKC,0.00,258.00,VWS V14.01,2013-08-25 20:00:00,
2013-08-25 14:04:00,71.7,55.2,29.73,SW,222,8.0,15.0,56,0.00,,SKC,0.00,125.00,VWS V14.01,2013-08-25 20:04:00,
2013-08-25 14:10:00,69.8,56.2,29.74,SSW,204,6.0,16.0,62,0.00,,SKC,0.00,162.00,VWS V14.01,2013-08-25 20:10:00,
2013-08-25 14:15:00,76.4,52.3,29.64,SSW,198,0.0,12.0,43,0.00,,SKC,0.00,350.00,VWS V14.01,2013-08-25 20:15:00,
2013-08-25 14:16:00,68.3,57.3,29.75,SSW,208,5.0,16.0,68,0.01,,SKC,0.01,236.00,VWS V14.01,2013-08-25 20:16:00,
2013-08-25 14:22:00,67.6,58.3,29.75,WSW,238,6.0,6.0,72,0.01,,SKC,0.01,269.00,VWS V14.01,2013-08-25 20:22:00,
2013-08-25 14:28:00,67.2,58.6,29.76,SW,226,1.0,6.0,74,0.01,,SKC,0.01,320.00,VWS V14.01,2013-08-25 20:28:00,
2013-08-25 14:30:00,75.7,52.9,29.63,SSE,161,3.0,7.0,45,0.00,,SKC,0.00,265.00,VWS V14.01,2013-08-25 20:30:00,
2013-08-25 14:34:00,67.1,58.9,29.76,SW,215,2.0,4.0,75,0.01,,SKC,0.01,390.00,VWS V14.01,2013-08-25 20:34:00,
2013-08-25 14:41:00,67.4,58.8,29.76,SW,215,0.0,4.0,74,0.01,,SKC,0.01,369.00,VWS V14.01,2013-08-25 20:41:00,
2013-08-25 14:45:00,74.7,53.7,29.66,South,190,2.0,10.0,48,0.00,,SKC,0.00,169.00,VWS V14.01,2013-08-25 20:45:00,
2013-08-25 14:46:00,67.8,58.5,29.75,SW,215,0.0,4.0,72,0.01,,SKC,0.01,378.00,VWS V14.01,2013-08-25 20:46:00,
2013-08-25 14:53:00,68.4,59.0,29.75,SW,215,0.0,1.0,72,0.01,,SKC,0.01,345.00,VWS V14.01,2013-08-25 20:53:00,
2013-08-25 14:59:00,69.0,59.2,29.74,ENE,61,4.0,5.0,71,0.01,,SKC,0.01,313.00,VWS V14.01,2013-08-25 20:59:00,
2013-08-25 15:00:00,72.4,55.3,29.68,SSW,198,10.0,14.0,55,0.00,,SKC,0.00,121.00,VWS V14.01,2013-08-25 21:00:00,
2013-08-25 15:05:00,69.2,59.0,29.73,North,355,2.0,7.0,70,0.01,,SKC,0.01,265.00,VWS V14.01,2013-08-25 21:05:00,
2013-08-25 15:11:00,69.0,58.4,29.73,North,360,10.0,10.0,69,0.01,,SKC,0.01,237.00,VWS V14.01,2013-08-25 21:11:00,
2013-08-25 15:15:00,68.3,57.3,29.75,SSW,208,5.0,16.0,68,0.01,,SKC,0.01,236.00,VWS V14.01,2013-08-25 21:15:00,
2013-08-25 15:16:00,68.6,58.4,29.73,NNW,347,3.0,10.0,70,0.01,,SKC,0.01,367.00,VWS V14.01,2013-08-25 21:16:00,
2013-08-25 15:23:00,68.6,58.0,29.73,North,360,6.0,9.0,69,0.00,,SKC,0.01,279.00,VWS V14.01,2013-08-25 21:23:00,
2013-08-25 15:29:00,68.5,58.3,29.73,NNE,17,6.0,9.0,70,0.00,,SKC,0.01,260.00,VWS V14.01,2013-08-25 21:29:00,
2013-08-25 15:30:00,67.1,58.5,29.76,WSW,239,2.0,6.0,74,0.01,,SKC,0.01,332.00,VWS V14.01,2013-08-25 21:30:00,
2013-08-25 15:35:00,68.3,58.5,29.75,NNW,348,2.0,9.0,71,0.00,,SKC,0.01,290.00,VWS V14.01,2013-08-25 21:35:00,
2013-08-25 15:41:00,68.2,58.0,29.74,NNE,18,4.0,9.0,70,0.00,,SKC,0.01,330.00,VWS V14.01,2013-08-25 21:41:00,
2013-08-25 15:45:00,67.8,58.5,29.75,SW,215,0.0,4.0,72,0.01,,SKC,0.01,378.00,VWS V14.01,2013-08-25 21:45:00,
2013-08-25 15:46:00,68.3,58.2,29.74,North,360,7.0,10.0,70,0.00,,SKC,0.01,480.00,VWS V14.01,2013-08-25 21:46:00,
2013-08-25 15:53:00,68.8,57.8,29.73,NNE,23,2.0,11.0,68,0.00,,SKC,0.01,427.00,VWS V14.01,2013-08-25 21:53:00,
2013-08-25 15:59:00,69.0,57.6,29.73,NNE,15,9.0,11.0,67,0.00,,SKC,0.01,403.00,VWS V14.01,2013-08-25 21:59:00,
2013-08-25 16:00:00,69.1,59.3,29.75,NNE,13,5.0,5.0,71,0.01,,SKC,0.01,320.00,VWS V14.01,2013-08-25 22:00:00,
2013-08-25 16:05:00,69.1,57.3,29.72,North,5,6.0,9.0,66,0.00,,SKC,0.01,343.00,VWS V14.01,2013-08-25 22:05:00,
2013-08-25 16:11:00,69.0,57.2,29.72,NNE,15,9.0,10.0,66,0.00,,SKC,0.01,315.00,VWS V14.01,2013-08-25 22:11:00,
2013-08-25 16:15:00,68.6,58.4,29.73,NNW,347,3.0,10.0,70,0.01,,SKC,0.01,367.00,VWS V14.01,2013-08-25 22:15:00,
2013-08-25 16:16:00,69.0,57.2,29.72,North,360,5.0,10.0,66,0.00,,SKC,0.01,283.00,VWS V14.01,2013-08-25 22:16:00,
2013-08-25 16:21:00,69.0,57.2,29.72,North,355,5.0,9.0,66,0.00,,SKC,0.01,397.00,VWS V14.01,2013-08-25 22:21:00,
2013-08-25 16:27:00,70.1,57.4,29.72,NE,36,5.0,11.0,64,0.00,,SKC,0.01,789.00,VWS V14.01,2013-08-25 22:27:00,
2013-08-25 16:30:00,68.5,58.7,29.73,North,360,6.0,9.0,71,0.00,,SKC,0.01,285.00,VWS V14.01,2013-08-25 22:30:00,
2013-08-25 16:33:00,70.7,57.5,29.70,North,11,0.0,9.0,63,0.00,,SKC,0.01,269.00,VWS V14.01,2013-08-25 22:33:00,
2013-08-25 16:39:00,70.9,57.2,29.70,North,355,10.0,12.0,62,0.00,,SKC,0.01,733.00,VWS V14.01,2013-08-25 22:39:00,
2013-08-25 16:45:00,71.0,56.9,29.69,NNW,348,1.0,12.0,61,0.00,,SKC,0.01,374.00,VWS V14.01,2013-08-25 22:45:00,
2013-08-25 16:51:00,71.4,57.3,29.69,NNE,14,4.0,7.0,61,0.00,,SKC,0.01,701.00,VWS V14.01,2013-08-25 22:51:00,
2013-08-25 16:57:00,71.6,57.5,29.69,NNW,346,0.0,9.0,61,0.00,,SKC,0.01,325.00,VWS V14.01,2013-08-25 22:57:00,
2013-08-25 17:00:00,69.0,57.6,29.73,North,5,5.0,11.0,67,0.00,,SKC,0.01,411.00,VWS V14.01,2013-08-25 23:00:00,
2013-08-25 17:03:00,71.6,57.5,29.69,NNE,18,3.0,9.0,61,0.00,,SKC,0.01,334.00,VWS V14.01,2013-08-25 23:03:00,
2013-08-25 17:10:00,71.6,57.0,29.69,NNW,344,3.0,9.0,60,0.00,,SKC,0.01,195.00,VWS V14.01,2013-08-25 23:10:00,
2013-08-25 17:15:00,69.0,57.2,29.72,North,360,5.0,10.0,66,0.00,,SKC,0.01,283.00,VWS V14.01,2013-08-25 23:15:00,
2013-08-25 17:16:00,71.1,56.5,29.71,North,9,3.0,9.0,60,0.00,,SKC,0.01,149.00,VWS V14.01,2013-08-25 23:16:00,
2013-08-25 17:22:00,70.7,56.6,29.71,NE,40,4.0,6.0,61,0.00,,SKC,0.01,197.00,VWS V14.01,2013-08-25 23:22:00,
2013-08-25 17:28:00,70.3,56.7,29.70,NNE,26,0.0,6.0,62,0.00,,SKC,0.01,142.00,VWS V14.01,2013-08-25 23:28:00,
2013-08-25 17:30:00,70.7,57.5,29.70,North,351,6.0,11.0,63,0.00,,SKC,0.01,789.00,VWS V14.01,2013-08-25 23:30:00,
2013-08-25 17:34:00,70.0,56.4,29.71,NNE,30,1.0,2.0,62,0.00,,SKC,0.01,69.00,VWS V14.01,2013-08-25 23:34:00,
2013-08-25 17:40:00,69.6,56.5,29.71,NE,35,1.0,4.0,63,0.00,,SKC,0.01,47.00,VWS V14.01,2013-08-25 23:40:00,
2013-08-25 17:45:00,71.0,56.9,29.69,NNW,348,0.0,12.0,61,0.00,,SKC,0.01,719.00,VWS V14.01,2013-08-25 23:45:00,
2013-08-25 17:46:00,69.2,56.5,29.72,NNE,32,0.0,4.0,64,0.00,,SKC,0.01,47.00,VWS V14.01,2013-08-25 23:46:00,
2013-08-25 17:52:00,68.9,56.2,29.72,NNE,32,0.0,2.0,64,0.00,,SKC,0.01,84.00,VWS V14.01,2013-08-25 23:52:00,
2013-08-25 17:58:00,68.8,56.6,29.72,NNE,32,3.0,3.0,65,0.00,,SKC,0.01,114.00,VWS V14.01,2013-08-25 23:58:00,
2013-08-25 18:00:00,71.6,57.0,29.69,NNE,14,5.0,11.0,60,0.00,,SKC,0.01,390.00,VWS V14.01,2013-08-26 00:00:00,
2013-08-25 18:04:00,68.7,56.5,29.73,NNE,32,0.0,3.0,65,0.00,,SKC,0.01,74.00,VWS V14.01,2013-08-26 00:04:00,
2013-08-25 18:10:00,68.6,56.4,29.73,NNE,31,2.0,4.0,65,0.00,,SKC,0.01,74.00,VWS V14.01,2013-08-26 00:10:00,
2013-08-25 18:15:00,71.1,56.5,29.71,NNW,343,3.0,9.0,60,0.00,,SKC,0.01,160.00,VWS V14.01,2013-08-26 00:15:00,
2013-08-25 18:16:00,68.3,56.1,29.73,NNE,30,2.0,5.0,65,0.00,,SKC,0.01,67.00,VWS V14.01,2013-08-26 00:16:00,
2013-08-25 18:22:00,68.2,56.0,29.74,NNE,30,0.0,1.0,65,0.00,,SKC,0.01,30.00,VWS V14.01,2013-08-26 00:22:00,
2013-08-25 18:28:00,68.1,56.3,29.73,NNE,30,0.0,1.0,66,0.00,,SKC,0.01,28.00,VWS V14.01,2013-08-26 00:28:00,
2013-08-25 18:30:00,70.1,56.9,29.71,NNE,33,1.0,6.0,63,0.00,,SKC,0.01,79.00,VWS V14.01,2013-08-26 00:30:00,
2013-08-25 18:34:00,68.0,57.5,29.73,NNE,30,0.0,0.0,69,0.00,,SKC,0.01,32.00,VWS V14.01,2013-08-26 00:34:00,
2013-08-25 18:40:00,67.8,58.1,29.73,NNE,30,0.0,0.0,71,0.00,,SKC,0.01,37.00,VWS V14.01,2013-08-26 00:40:00,
2013-08-25 18:45:00,69.2,56.5,29.72,NNE,32,2.0,4.0,64,0.00,,SKC,0.01,47.00,VWS V14.01,2013-08-26 00:45:00,
2013-08-25 18:46:00,67.6,58.3,29.73,NNE,30,0.0,0.0,72,0.00,,SKC,0.01,39.00,VWS V14.01,2013-08-26 00:46:00,
2013-08-25 18:52:00,67.4,58.1,29.74,NNE,30,0.0,0.0,72,0.00,,SKC,0.01,26.00,VWS V14.01,2013-08-26 00:52:00,
2013-08-25 18:58:00,67.2,57.9,29.74,NNE,30,0.0,0.0,72,0.00,,SKC,0.01,16.00,VWS V14.01,2013-08-26 00:58:00,
2013-08-25 19:00:00,68.7,56.5,29.72,NNE,32,2.0,3.0,65,0.00,,SKC,0.01,91.00,VWS V14.01,2013-08-26 01:00:00,
2013-08-25 19:04:00,67.0,58.1,29.74,NNE,30,0.0,0.0,73,0.00,,SKC,0.01,11.00,VWS V14.01,2013-08-26 01:04:00,
2013-08-25 19:10:00,66.7,58.2,29.75,NNE,30,0.0,0.0,74,0.00,,SKC,0.01,11.00,VWS V14.01,2013-08-26 01:10:00,
2013-08-25 19:15:00,68.3,56.1,29.73,NNE,30,0.0,5.0,65,0.00,,SKC,0.01,60.00,VWS V14.01,2013-08-26 01:15:00,
2013-08-25 19:16:00,66.5,58.3,29.75,NNE,30,0.0,0.0,75,0.00,,SKC,0.01,25.00,VWS V14.01,2013-08-26 01:16:00,
2013-08-25 19:22:00,66.3,58.2,29.75,NNE,30,0.0,0.0,75,0.00,,SKC,0.01,42.00,VWS V14.01,2013-08-26 01:22:00,
2013-08-25 19:28:00,66.1,58.3,29.75,NNE,30,0.0,0.0,76,0.00,,SKC,0.01,25.00,VWS V14.01,2013-08-26 01:28:00,
2013-08-25 19:30:00,68.1,57.6,29.73,NNE,30,0.0,1.0,69,0.00,,SKC,0.01,28.00,VWS V14.01,2013-08-26 01:30:00,
2013-08-25 19:34:00,65.9,57.8,29.75,NNE,30,0.0,0.0,75,0.00,,SKC,0.01,9.00,VWS V14.01,2013-08-26 01:34:00,
2013-08-25 19:40:00,65.7,57.2,29.75,NNE,30,0.0,4.0,74,0.00,,SKC,0.01,0.00,VWS V14.01,2013-08-26 01:40:00,
2013-08-25 19:45:00,67.6,58.3,29.73,NNE,30,0.0,0.0,72,0.00,,SKC,0.01,37.00,VWS V14.01,2013-08-26 01:45:00,
2013-08-25 19:46:00,65.6,57.1,29.76,NNE,30,0.0,4.0,74,0.00,,SKC,0.01,0.00,VWS V14.01,2013-08-26 01:46:00,
2013-08-25 19:52:00,65.4,58.0,29.77,NNE,30,0.0,1.0,77,0.00,,SKC,0.01,0.00,VWS V14.01,2013-08-26 01:52:00,
2013-08-25 19:58:00,65.3,57.5,29.77,NNE,30,0.0,1.0,76,0.00,,SKC,0.01,0.00,VWS V14.01,2013-08-26 01:58:00,
2013-08-25 20:00:00,67.1,58.2,29.74,NNE,30,0.0,0.0,73,0.00,,SKC,0.01,14.00,VWS V14.01,2013-08-26 02:00:00,
2013-08-25 20:04:00,65.1,57.7,29.73,NNE,30,0.0,0.0,77,0.00,,SKC,0.01,0.00,VWS V14.01,2013-08-26 02:04:00,
2013-08-25 20:10:00,65.0,57.6,29.73,NNE,30,0.0,0.0,77,0.00,,SKC,0.01,0.00,VWS V14.01,2013-08-26 02:10:00,
2013-08-25 20:15:00,66.5,58.3,29.75,NNE,30,0.0,0.0,75,0.00,,SKC,0.01,33.00,VWS V14.01,2013-08-26 02:15:00,
2013-08-25 20:16:00,64.9,57.5,29.73,NNE,30,0.0,0.0,77,0.00,,SKC,0.01,0.00,VWS V14.01,2013-08-26 02:16:00,
2013-08-25 20:22:00,64.8,58.1,29.73,NNE,30,0.0,0.0,79,0.00,,SKC,0.01,0.00,VWS V14.01,2013-08-26 02:22:00,
2013-08-25 20:28:00,64.6,58.0,29.74,NNE,30,0.0,3.0,79,0.00,,SKC,0.01,0.00,VWS V14.01,2013-08-26 02:28:00,
2013-08-25 20:30:00,66.0,58.2,29.75,NNE,30,0.0,1.0,76,0.00,,SKC,0.01,16.00,VWS V14.01,2013-08-26 02:30:00,
2013-08-25 20:34:00,64.3,57.7,29.75,NNE,30,0.0,1.0,79,0.00,,SKC,0.01,0.00,VWS V14.01,2013-08-26 02:34:00,
2013-08-25 20:40:00,64.0,57.7,29.76,NNE,30,0.0,4.0,80,0.00,,SKC,0.01,0.00,VWS V14.01,2013-08-26 02:40:00,
2013-08-25 20:45:00,65.6,57.1,29.76,NNE,30,0.0,4.0,74,0.00,,SKC,0.01,0.00,VWS V14.01,2013-08-26 02:45:00,
2013-08-25 20:46:00,63.7,57.4,29.76,NNE,30,0.0,4.0,80,0.00,,SKC,0.01,0.00,VWS V14.01,2013-08-26 02:46:00,
2013-08-25 20:52:00,63.5,57.6,29.76,NNE,30,0.0,1.0,81,0.00,,SKC,0.01,0.00,VWS V14.01,2013-08-26 02:52:00,
2013-08-25 20:58:00,63.3,57.4,29.77,NNE,30,0.0,3.0,81,0.00,,SKC,0.01,0.00,VWS V14.01,2013-08-26 02:58:00,
2013-08-25 21:00:00,65.2,57.8,29.77,NNE,30,0.0,1.0,77,0.00,,SKC,0.01,0.00,VWS V14.01,2013-08-26 03:00:00,
2013-08-25 21:04:00,63.1,57.5,29.71,NNE,30,0.0,0.0,82,0.00,,SKC,0.01,0.00,VWS V14.01,2013-08-26 03:04:00,
2013-08-25 21:10:00,63.0,57.4,29.70,NNE,30,0.0,2.0,82,0.00,,SKC,0.01,0.00,VWS V14.01,2013-08-26 03:10:00,
2013-08-25 21:15:00,64.9,57.5,29.73,NNE,30,0.0,0.0,77,0.00,,SKC,0.01,0.00,VWS V14.01,2013-08-26 03:15:00,
2013-08-25 21:16:00,62.9,57.3,29.71,NNE,30,0.0,2.0,82,0.00,,SKC,0.01,0.00,VWS V14.01,2013-08-26 03:16:00,
2013-08-25 21:22:00,62.8,57.6,29.72,NNE,30,0.0,1.0,83,0.00,,SKC,0.01,0.00,VWS V14.01,2013-08-26 03:22:00,
2013-08-25 21:28:00,62.7,57.8,29.72,NNE,30,0.0,3.0,84,0.01,,SKC,0.02,0.00,VWS V14.01,2013-08-26 03:28:00,
2013-08-25 21:30:00,64.5,57.8,29.74,NNE,30,0.0,3.0,79,0.00,,SKC,0.01,0.00,VWS V14.01,2013-08-26 03:30:00,
2013-08-25 21:34:00,62.6,58.0,29.72,NNE,30,0.0,0.0,85,0.02,,SKC,0.03,0.00,VWS V14.01,2013-08-26 03:34:00,
2013-08-25 21:40:00,62.4,58.2,29.73,NNE,30,0.0,0.0,86,0.02,,SKC,0.03,0.00,VWS V14.01,2013-08-26 03:40:00,
2013-08-25 21:45:00,63.7,57.4,29.76,NNE,30,0.0,4.0,80,0.00,,SKC,0.01,0.00,VWS V14.01,2013-08-26 03:45:00,
2013-08-25 21:46:00,62.3,58.1,29.73,NNE,30,0.0,0.0,86,0.02,,SKC,0.03,0.00,VWS V14.01,2013-08-26 03:46:00,
2013-08-25 21:53:00,62.1,57.9,29.73,NNE,30,0.0,0.0,86,0.02,,SKC,0.03,0.00,VWS V14.01,2013-08-26 03:53:00,
2013-08-25 21:59:00,61.9,58.0,29.73,NNE,30,0.0,0.0,87,0.02,,SKC,0.03,0.00,VWS V14.01,2013-08-26 03:59:00,
2013-08-25 22:00:00,63.2,57.3,29.77,NNE,30,0.0,3.0,81,0.00,,SKC,0.01,0.00,VWS V14.01,2013-08-26 04:00:00,
2013-08-25 22:01:00,61.8,57.6,29.73,NNE,30,0.0,0.0,86,0.02,,SKC,0.03,0.00,VWS V14.01,2013-08-26 04:01:00,
2013-08-25 22:03:00,61.7,57.8,29.73,NNE,30,0.0,0.0,87,0.02,,SKC,0.03,0.00,VWS V14.01,2013-08-26 04:03:00,
2013-08-25 22:05:00,61.6,57.7,29.73,NNE,30,0.0,0.0,87,0.02,,SKC,0.03,0.00,VWS V14.01,2013-08-26 04:05:00,
2013-08-25 22:09:00,61.5,57.6,29.74,NNE,30,0.0,0.0,87,0.02,,SKC,0.03,0.00,VWS V14.01,2013-08-26 04:09:00,
2013-08-25 22:12:00,61.4,57.5,29.73,NNE,30,0.0,0.0,87,0.02,,SKC,0.03,0.00,VWS V14.01,2013-08-26 04:12:00,
2013-08-25 22:15:00,62.9,57.3,29.71,NNE,30,0.0,2.0,82,0.00,,SKC,0.01,0.00,VWS V14.01,2013-08-26 04:15:00,
2013-08-25 22:18:00,61.2,57.3,29.73,NNE,30,0.0,0.0,87,0.02,,SKC,0.03,0.00,VWS V14.01,2013-08-26 04:18:00,
2013-08-25 22:24:00,61.0,57.4,29.74,NNE,30,0.0,0.0,88,0.02,,SKC,0.03,0.00,VWS V14.01,2013-08-26 04:24:00,
2013-08-25 22:30:00,60.8,57.2,29.73,NNE,30,0.0,0.0,88,0.02,,SKC,0.03,0.00,VWS V14.01,2013-08-26 04:30:00,
2013-08-25 22:36:00,60.6,57.0,29.73,NNE,30,0.0,0.0,88,0.01,,SKC,0.03,0.00,VWS V14.01,2013-08-26 04:36:00,
2013-08-25 22:42:00,60.4,57.2,29.75,NNE,30,0.0,0.0,89,0.01,,SKC,0.03,0.00,VWS V14.01,2013-08-26 04:42:00,
2013-08-25 22:45:00,62.3,58.1,29.73,NNE,30,0.0,0.0,86,0.02,,SKC,0.03,0.00,VWS V14.01,2013-08-26 04:45:00,
2013-08-25 22:48:00,60.2,57.0,29.75,NNE,30,0.0,0.0,89,0.00,,SKC,0.03,0.00,VWS V14.01,2013-08-26 04:48:00,
2013-08-25 22:54:00,60.0,56.8,29.74,NNE,30,0.0,1.0,89,0.00,,SKC,0.03,0.00,VWS V14.01,2013-08-26 04:54:00,
2013-08-25 23:00:00,59.8,56.9,29.75,NNE,30,0.0,1.0,90,0.00,,SKC,0.03,0.00,VWS V14.01,2013-08-26 05:00:00,
2013-08-25 23:06:00,59.6,56.7,29.72,NNE,30,0.0,0.0,90,0.00,,SKC,0.03,0.00,VWS V14.01,2013-08-26 05:06:00,
2013-08-25 23:13:00,59.4,56.5,29.74,NNE,30,0.0,0.0,90,0.00,,SKC,0.03,0.00,VWS V14.01,2013-08-26 05:13:00,
2013-08-25 23:15:00,61.2,57.3,29.73,NNE,30,0.0,0.0,87,0.02,,SKC,0.03,0.00,VWS V14.01,2013-08-26 05:15:00,
2013-08-25 23:19:00,59.3,56.4,29.74,NNE,30,0.0,0.0,90,0.00,,SKC,0.03,0.00,VWS V14.01,2013-08-26 05:19:00,
2013-08-25 23:25:00,59.1,56.2,29.74,NNE,30,0.0,0.0,90,0.00,,SKC,0.03,0.00,VWS V14.01,2013-08-26 05:25:00,
2013-08-25 23:30:00,60.7,57.1,29.73,NNE,30,0.0,0.0,88,0.02,,SKC,0.03,0.00,VWS V14.01,2013-08-26 05:30:00,
2013-08-25 23:31:00,59.0,56.4,29.74,NNE,30,0.0,0.0,91,0.00,,SKC,0.03,0.00,VWS V14.01,2013-08-26 05:31:00,
2013-08-25 23:37:00,59.0,56.4,29.74,NNE,30,0.0,0.0,91,0.00,,SKC,0.03,0.00,VWS V14.01,2013-08-26 05:37:00,
2013-08-25 23:43:00,59.0,56.4,29.74,NNE,30,0.0,0.0,91,0.00,,SKC,0.03,0.00,VWS V14.01,2013-08-26 05:43:00,
2013-08-25 23:45:00,60.3,57.0,29.75,NNE,30,0.0,0.0,89,0.01,,SKC,0.03,0.00,VWS V14.01,2013-08-26 05:45:00,
2013-08-25 23:49:00,59.0,56.4,29.74,NNE,30,0.0,0.0,91,0.00,,SKC,0.03,0.00,VWS V14.01,2013-08-26 05:49:00,
2013-08-25 23:55:00,59.0,56.7,29.73,NNE,30,0.0,0.0,92,0.00,,SKC,0.03,0.00,VWS V14.01,2013-08-26 05:55:00,